Bowen Airport, Australia

9:51 AM AEST on March 30, 2017 (GMT +1000)
Delta | | Change Station

Elev 43 ft 20.02 °S, 148.19 °E | Updated 5 minutes ago

Mostly Cloudy
Mostly Cloudy
86.5 °F
Feels Like 107 °F
N
2.0
Wind Variable Wind from East
Gusts 5.0 mph

Today
High -- | Low -- °F
--% Chance of Precip.
Yesterday
High -- | Low -- °F
Precip. -- in
Pressure 29.77 in
Visibility -9999.0 miles
Clouds
Heat Index 107 °F
Dew Point 83 °F
Humidity 89%
Rainfall 0.00 in
Snow Depth Not available.
6:13 AM 6:09 PM
Waxing Crescent, 5% visible
METAR YBPN 292300Z AUTO 33013KT //// // ////// 29/27 Q1008
Pressure 29.77 in
Visibility -9999.0 miles
Clouds
Heat Index 107 °F
Dew Point 83 °F
Humidity 89%
Rainfall 0.00 in
Snow Depth Not available.
6:13 AM 6:09 PM
Waxing Crescent, 5% visible
METAR YBPN 292300Z AUTO 33013KT //// // ////// 29/27 Q1008

Get Severe Weather Alerts

Thanks for signing up!

Be on the lookout for a verification email in your inbox.

You'll start receiving the daily forecast at 8 AM.

×

10-Day Weather Forecast

×

Almanac

Astronomy

Mar. 30, 2017 Rise Set
Actual Time
Civil Twilight
Nautical Twilight
Astronomical Twilight
Moon
Length of Visible Light
Length of Day
Tomorrow will be .
, % of the Moon is Illuminated

Today's Extremes

Country Highs Country Lows

Community

WunderPhotos

Upload Photos

1,962,540 photos uploaded!

WunderBlog® & News

Nearby

Air Quality

  Air Quality AQ Index Pollutant
Not available.

Snow Depth

Station Depth Elevation

Earthquake Activity

City Distance Mag. Time & Date
Minimum magnitude displayed is 2.5.

Earthquake Activity

City Distance Mag. Time & Date
Minimum magnitude displayed is 2.5.

Coastal Water Temperatures

Place Temperature

Stations

Nearby Weather Stations

Station Location Temp. Windchill Dew Point Humidity Wind Precip. Elev Updated Type